Time;durP1;ratioP1;P1;durP2;ratioP2;P2;SDS_P1;SDS_P2;PMS_P1;PMS_P2;Temp;Humidity;BMP_temperature;BMP_pressure;BME280_temperature;BME280_humidity;BME280_pressure;Samples;Min_cycle;Max_cycle;Signal;HPM_P1;HPM_P2
2022/11/10 00:04:31;;;;;;;59.10;29.63;;;8.70;99.90;;;;;;10481997;28;20395;-77
2022/11/10 00:09:31;;;;;;;59.47;29.93;;;8.60;99.90;;;;;;10481507;28;20039;-78
2022/11/10 00:19:51;;;;;;;54.73;27.90;;;8.60;99.90;;;;;;10482207;28;20102;-77
2022/11/10 00:24:51;;;;;;;57.10;28.30;;;8.50;99.90;;;;;;10463170;28;20119;-77
2022/11/10 00:29:52;;;;;;;62.43;30.97;;;8.50;99.90;;;;;;10482453;28;20032;-77
2022/11/10 00:34:52;;;;;;;61.60;30.70;;;8.40;99.90;;;;;;10481744;28;20029;-78
2022/11/10 00:39:53;;;;;;;63.80;29.67;;;8.40;99.90;;;;;;10481637;28;20492;-77
2022/11/10 00:44:54;;;;;;;60.73;28.67;;;8.40;99.90;;;;;;10483639;28;20032;-78
2022/11/10 00:49:54;;;;;;;64.93;29.30;;;8.40;99.90;;;;;;10481501;28;20024;-78
2022/11/10 00:54:55;;;;;;;55.93;27.40;;;8.40;99.90;;;;;;10481029;28;20397;-78
2022/11/10 00:59:55;;;;;;;58.80;27.60;;;8.30;99.90;;;;;;10481375;28;20075;-77
2022/11/10 01:04:56;;;;;;;60.13;27.67;;;8.30;99.90;;;;;;10479753;28;20079;-77
2022/11/10 01:09:56;;;;;;;57.03;27.03;;;8.20;99.90;;;;;;10481122;28;20561;-77
2022/11/10 01:14:57;;;;;;;53.40;26.53;;;8.20;99.90;;;;;;10480397;28;20037;-77
2022/11/10 01:19:57;;;;;;;58.47;28.80;;;8.20;99.90;;;;;;10479761;28;20548;-77
2022/11/10 01:24:58;;;;;;;69.73;31.87;;;8.20;99.90;;;;;;10481108;28;20032;-79
2022/11/10 01:29:58;;;;;;;73.03;35.63;;;8.20;99.90;;;;;;10481729;28;20028;-78
2022/11/10 01:34:59;;;;;;;78.87;37.60;;;8.20;99.90;;;;;;10482234;28;20024;-78
2022/11/10 01:39:59;;;;;;;80.77;38.30;;;8.20;99.90;;;;;;10481648;28;20480;-78
2022/11/10 01:45:22;;;;;;;74.57;35.23;;;8.20;99.90;;;;;;10481702;28;20056;-77
2022/11/10 01:50:25;;;;;;;68.53;31.67;;;8.10;99.90;;;;;;10478338;28;20052;-78
2022/11/10 01:55:27;;;;;;;67.53;31.80;;;8.20;99.90;;;;;;10479895;28;20032;-78
2022/11/10 02:00:27;;;;;;;68.27;30.83;;;8.10;99.90;;;;;;10479276;28;20384;-77
2022/11/10 02:05:28;;;;;;;70.67;32.23;;;8.00;99.90;;;;;;10478582;28;20020;-78
2022/11/10 02:10:29;;;;;;;70.27;33.13;;;8.00;99.90;;;;;;10478525;28;20052;-77
2022/11/10 02:15:29;;;;;;;76.37;37.07;;;7.90;99.90;;;;;;10480315;28;20021;-77
2022/11/10 02:20:30;;;;;;;81.13;38.93;;;7.90;99.90;;;;;;10478827;28;20052;-77
2022/11/10 02:25:31;;;;;;;92.13;41.37;;;7.90;99.90;;;;;;10478268;28;20033;-78
2022/11/10 02:30:32;;;;;;;96.53;45.07;;;7.90;99.90;;;;;;10479200;28;20392;-77
2022/11/10 02:35:32;;;;;;;85.07;40.17;;;7.80;99.90;;;;;;10486499;28;20020;-77
2022/11/10 02:40:33;;;;;;;81.80;37.70;;;7.80;99.90;;;;;;10486038;28;20062;-78
2022/11/10 02:45:33;;;;;;;79.53;35.63;;;7.80;99.90;;;;;;10485905;28;20045;-76
2022/11/10 02:50:34;;;;;;;81.20;37.83;;;7.80;99.90;;;;;;10485964;28;20044;-77
2022/11/10 02:55:35;;;;;;;87.20;39.43;;;7.80;99.90;;;;;;10485146;28;20040;-78
2022/11/10 03:00:35;;;;;;;84.53;36.57;;;7.80;99.90;;;;;;10486814;28;20493;-77
2022/11/10 03:05:36;;;;;;;74.47;33.83;;;7.90;99.90;;;;;;10485480;28;20082;-77
2022/11/10 03:10:36;;;;;;;76.23;35.40;;;8.10;99.90;;;;;;10485948;28;20028;-78
2022/11/10 03:15:37;;;;;;;79.40;35.83;;;8.20;99.90;;;;;;10485773;28;20045;-77
2022/11/10 03:20:37;;;;;;;84.03;37.53;;;8.20;99.90;;;;;;10483658;28;20055;-77
2022/11/10 03:25:38;;;;;;;83.17;38.80;;;8.30;99.90;;;;;;10484581;28;20051;-78
2022/11/10 03:30:39;;;;;;;83.33;39.40;;;8.30;99.90;;;;;;10485361;28;20024;-77
2022/11/10 03:35:39;;;;;;;87.60;39.20;;;8.40;99.90;;;;;;10483929;28;20399;-77
2022/11/10 03:40:40;;;;;;;86.17;34.77;;;8.40;99.90;;;;;;10484524;28;20032;-77
2022/11/10 03:45:43;;;;;;;79.57;34.00;;;8.40;99.90;;;;;;10481914;28;20041;-77
2022/11/10 03:50:43;;;;;;;75.77;33.03;;;8.40;99.90;;;;;;10485080;28;20033;-77
2022/11/10 03:55:44;;;;;;;76.67;32.00;;;8.40;99.90;;;;;;10482742;28;20061;-77
2022/11/10 04:00:44;;;;;;;78.60;34.47;;;8.40;99.90;;;;;;10467016;28;20123;-77
2022/11/10 04:11:05;;;;;;;77.17;33.37;;;8.50;99.90;;;;;;10483833;28;20180;-78
2022/11/10 04:16:05;;;;;;;81.87;35.53;;;8.40;99.90;;;;;;10483492;28;20048;-78
2022/11/10 04:21:06;;;;;;;77.43;32.50;;;8.50;99.90;;;;;;10481790;28;20610;-79
2022/11/10 04:31:29;;;;;;;86.17;37.43;;;8.50;99.90;;;;;;10483113;28;20683;-77
2022/11/10 04:36:32;;;;;;;99.40;44.60;;;8.60;99.90;;;;;;10481249;28;20040;-78
2022/11/10 04:41:33;;;;;;;96.17;43.87;;;8.60;99.90;;;;;;10482679;28;20024;-77
2022/11/10 04:46:37;;;;;;;91.60;36.93;;;8.70;99.90;;;;;;10481424;28;20033;-77
2022/11/10 04:51:38;;;;;;;91.67;37.53;;;8.70;99.90;;;;;;10494075;28;20027;-79
2022/11/10 04:56:39;;;;;;;79.63;36.97;;;8.70;99.90;;;;;;10485882;28;20056;-78
2022/11/10 05:01:39;;;;;;;83.43;37.10;;;8.80;99.90;;;;;;10481654;28;20041;-80
2022/11/10 05:06:40;;;;;;;84.70;38.30;;;8.80;99.90;;;;;;10480918;28;20075;-77
2022/11/10 05:11:40;;;;;;;88.97;40.00;;;8.80;99.90;;;;;;10484973;28;20047;-77
2022/11/10 05:16:41;;;;;;;92.83;41.60;;;8.90;99.90;;;;;;10483908;28;20036;-78
2022/11/10 05:21:41;;;;;;;89.27;38.03;;;8.90;99.90;;;;;;10483653;28;20063;-77
2022/11/10 05:26:42;;;;;;;92.87;40.83;;;8.90;99.90;;;;;;10485489;28;20047;-77
2022/11/10 05:31:42;;;;;;;87.60;36.07;;;8.90;99.90;;;;;;10482118;28;20032;-77
2022/11/10 05:36:43;;;;;;;91.47;39.30;;;8.90;99.90;;;;;;10482259;28;20040;-79
2022/11/10 05:41:43;;;;;;;86.97;36.60;;;8.90;99.90;;;;;;10472796;28;20044;-77
2022/11/10 05:46:44;;;;;;;91.83;37.47;;;8.90;99.90;;;;;;10484231;28;20024;-78
2022/11/10 05:51:44;;;;;;;92.97;38.17;;;8.90;99.90;;;;;;10483967;28;20040;-77
2022/11/10 05:56:45;;;;;;;94.27;39.50;;;8.90;99.90;;;;;;10483056;28;20040;-79
2022/11/10 06:01:45;;;;;;;99.93;39.87;;;8.90;99.90;;;;;;10472894;28;20403;-77
2022/11/10 06:06:46;;;;;;;98.60;41.77;;;8.90;99.90;;;;;;10485147;28;20044;-78
2022/11/10 06:11:46;;;;;;;97.10;40.50;;;8.90;99.90;;;;;;10491994;28;20044;-77
2022/11/10 06:16:47;;;;;;;94.50;38.60;;;8.90;99.90;;;;;;10491467;28;20043;-78
2022/11/10 06:21:47;;;;;;;93.43;39.27;;;9.00;99.90;;;;;;10490411;28;20411;-77
2022/11/10 06:26:48;;;;;;;100.23;41.67;;;9.00;99.90;;;;;;10491070;28;20044;-77
2022/11/10 06:31:48;;;;;;;111.80;46.63;;;9.00;99.90;;;;;;10490384;28;20034;-78
2022/11/10 06:36:49;;;;;;;108.40;44.90;;;9.00;99.90;;;;;;10490096;28;20044;-77
2022/11/10 06:41:49;;;;;;;114.83;45.77;;;9.00;99.90;;;;;;10490295;28;20037;-78
2022/11/10 06:46:51;;;;;;;111.37;44.43;;;9.10;99.90;;;;;;10489761;28;20593;-78
2022/11/10 06:51:51;;;;;;;107.53;44.73;;;9.10;99.90;;;;;;10489568;28;20522;-78
2022/11/10 06:56:52;;;;;;;120.17;50.20;;;9.10;99.90;;;;;;10489110;28;20040;-78
2022/11/10 07:01:52;;;;;;;107.97;45.90;;;9.10;99.90;;;;;;10475756;28;20033;-78
2022/11/10 07:06:53;;;;;;;119.30;47.00;;;9.20;99.90;;;;;;10489219;28;20037;-79
2022/11/10 07:11:53;;;;;;;136.83;57.00;;;9.30;99.90;;;;;;10489274;28;20029;-80
2022/11/10 07:16:54;;;;;;;155.93;67.57;;;9.30;99.90;;;;;;10487402;28;20685;-80
2022/11/10 07:21:54;;;;;;;154.97;62.53;;;9.40;99.90;;;;;;10486860;28;20043;-78
2022/11/10 07:26:56;;;;;;;165.43;67.37;;;9.40;99.90;;;;;;10487111;28;20801;-77
2022/11/10 07:31:57;;;;;;;183.93;74.30;;;9.50;99.90;;;;;;10488532;28;20407;-78
2022/11/10 07:36:58;;;;;;;159.10;62.43;;;9.50;99.90;;;;;;10485908;28;20048;-78
2022/11/10 07:41:58;;;;;;;150.77;62.07;;;9.50;99.90;;;;;;10487016;28;20424;-77
2022/11/10 07:46:59;;;;;;;123.17;49.13;;;9.50;99.90;;;;;;10487633;28;20032;-78
2022/11/10 07:51:59;;;;;;;165.00;67.83;;;9.50;99.90;;;;;;10487577;28;20033;-77
2022/11/10 07:57:00;;;;;;;149.77;57.20;;;9.50;99.90;;;;;;10487918;28;20055;-78
2022/11/10 08:02:01;;;;;;;136.20;50.27;;;9.50;99.90;;;;;;10469739;28;20031;-79
2022/11/10 08:07:01;;;;;;;129.13;52.10;;;9.60;99.90;;;;;;10486975;28;20074;-77
2022/11/10 08:12:02;;;;;;;117.43;45.50;;;9.60;99.90;;;;;;10486567;28;20440;-78
2022/11/10 08:17:04;;;;;;;121.17;45.27;;;9.60;99.90;;;;;;10486658;28;20384;-81
2022/11/10 08:22:04;;;;;;;121.90;46.07;;;9.70;99.90;;;;;;10485794;28;20052;-77
2022/11/10 08:27:05;;;;;;;116.53;44.83;;;9.70;99.90;;;;;;10486658;28;20055;-78
2022/11/10 08:32:06;;;;;;;123.57;45.03;;;9.80;99.90;;;;;;10485466;28;20140;-78
2022/11/10 08:37:07;;;;;;;107.70;41.73;;;9.80;99.90;;;;;;10485711;28;20040;-77
2022/11/10 08:42:07;;;;;;;101.47;40.07;;;9.90;99.90;;;;;;10486599;28;20487;-78
2022/11/10 08:47:08;;;;;;;110.20;42.13;;;9.90;99.90;;;;;;10475040;28;20031;-77
2022/11/10 08:52:10;;;;;;;102.57;39.23;;;9.90;99.90;;;;;;10484292;28;20508;-77
2022/11/10 08:57:10;;;;;;;100.50;40.60;;;9.90;99.90;;;;;;10484176;28;20094;-77
2022/11/10 09:02:11;;;;;;;109.67;42.63;;;9.90;99.90;;;;;;10484013;28;20032;-77
2022/11/10 09:07:12;;;;;;;104.63;40.50;;;9.90;99.90;;;;;;10483310;28;20476;-78
2022/11/10 09:12:13;;;;;;;93.97;39.67;;;9.90;99.90;;;;;;10484229;28;20016;-79
2022/11/10 09:17:13;;;;;;;112.40;44.43;;;9.90;99.90;;;;;;10481471;28;20037;-77
2022/11/10 09:22:14;;;;;;;101.65;41.78;;;10.00;99.90;;;;;;10483145;28;20131;-80
2022/11/10 09:27:14;;;;;;;106.47;42.57;;;10.00;99.90;;;;;;10474613;28;20808;-79
2022/11/10 09:32:15;;;;;;;118.67;45.43;;;10.10;99.90;;;;;;10470749;28;20041;-79
2022/11/10 09:37:15;;;;;;;96.23;38.90;;;10.10;99.90;;;;;;10483821;28;20036;-80
2022/11/10 09:42:31;;;;;;;101.47;42.80;;;10.10;99.90;;;;;;10476319;28;20043;-80
2022/11/10 09:47:55;;;;;;;101.88;42.83;;;10.30;99.90;;;;;;10482498;28;20388;-80
2022/11/10 09:52:58;;;;;;;94.28;42.10;;;10.40;99.90;;;;;;10477834;28;20032;-80
2022/11/10 09:57:59;;;;;;;90.97;40.15;;;10.60;99.90;;;;;;10481330;28;20029;-80
2022/11/10 10:03:05;;;;;;;87.07;39.35;;;10.70;99.90;;;;;;10476863;28;20040;-80
2022/11/10 10:08:53;;;;;;;75.90;32.30;;;10.90;99.90;;;;;;10483015;28;20838;-81
2022/11/10 10:14:28;;;;;;;82.95;35.42;;;11.00;99.90;;;;;;10420750;28;20032;-79
2022/11/10 10:19:52;;;;;;;88.20;40.47;;;11.30;99.90;;;;;;10440595;28;20079;-79
2022/11/10 10:24:58;;;;;;;73.40;35.10;;;11.30;99.90;;;;;;10483281;28;20279;-78
2022/11/10 10:29:58;;;;;;;70.22;30.58;;;11.30;99.90;;;;;;10481908;28;20056;-81
2022/11/10 10:34:59;;;;;;;53.78;26.80;;;11.30;99.90;;;;;;10483078;28;20661;-79
2022/11/10 10:39:59;;;;;;;56.70;24.33;;;11.30;99.90;;;;;;10482524;28;20040;-79
2022/11/10 10:45:21;;;;;;;59.42;28.02;;;11.30;99.90;;;;;;10463891;28;20032;-80
2022/11/10 10:50:27;;;;;;;58.70;26.45;;;11.50;99.90;;;;;;10481298;28;20036;-84
2022/11/10 10:55:29;;;;;;;52.47;25.02;;;11.60;99.90;;;;;;10488353;28;20032;-80
2022/11/10 11:00:30;;;;;;;51.90;23.75;;;11.70;99.90;;;;;;10457264;28;20041;-81
2022/11/10 11:05:31;;;;;;;53.15;26.00;;;11.80;99.90;;;;;;10488900;28;20035;-82
2022/11/10 11:10:42;;;;;;;54.53;26.90;;;11.80;99.90;;;;;;10489796;28;20031;-83
2022/11/10 11:15:59;;;;;;;53.63;26.08;;;11.80;99.90;;;;;;10489092;28;20032;-79
2022/11/10 11:21:06;;;;;;;53.13;24.23;;;11.80;99.90;;;;;;10488487;28;20053;-83
2022/11/10 11:26:33;;;;;;;36.72;19.33;;;11.80;99.90;;;;;;10489231;28;20048;-79
2022/11/10 11:31:51;;;;;;;47.70;25.45;;;12.00;99.90;;;;;;10488344;28;20123;-79
2022/11/10 11:37:19;;;;;;;50.15;26.50;;;12.00;99.90;;;;;;10488228;28;20706;-80
2022/11/10 11:42:31;;;;;;;52.35;25.08;;;12.00;99.90;;;;;;10479838;28;20032;-81
2022/11/10 11:47:37;;;;;;;52.17;31.27;;;12.00;99.90;;;;;;10474862;28;20028;-80
2022/11/10 11:53:02;;;;;;;44.33;25.67;;;12.00;99.90;;;;;;10484126;28;20033;-81
2022/11/10 11:58:23;;;;;;;45.20;25.27;;;11.90;99.90;;;;;;10487864;28;20035;-82
2022/11/10 12:03:37;;;;;;;52.33;28.38;;;11.90;99.90;;;;;;10486466;28;20070;-80
2022/11/10 12:08:54;;;;;;;55.90;31.42;;;11.90;99.90;;;;;;10486877;28;20032;-79
2022/11/10 12:14:13;;;;;;;41.65;22.50;;;12.10;99.90;;;;;;10486601;28;20036;-79
2022/11/10 12:19:39;;;;;;;40.42;22.35;;;12.30;99.90;;;;;;10486227;28;20094;-80
2022/11/10 12:25:04;;;;;;;50.10;22.87;;;12.50;99.90;;;;;;10486152;28;20024;-79
2022/11/10 12:30:09;;;;;;;36.80;20.90;;;12.50;99.90;;;;;;10445247;28;20051;-79
2022/11/10 12:35:19;;;;;;;35.10;19.63;;;12.60;99.90;;;;;;10486126;28;20476;-81
2022/11/10 12:40:23;;;;;;;32.30;18.13;;;13.10;99.90;;;;;;10485365;28;20127;-81
2022/11/10 12:45:43;;;;;;;46.15;23.55;;;13.40;99.90;;;;;;10484378;28;20758;-80
2022/11/10 12:51:00;;;;;;;44.58;22.83;;;13.30;99.90;;;;;;10484328;28;20063;-80
2022/11/10 12:56:11;;;;;;;40.60;19.65;;;13.00;99.90;;;;;;10477543;28;20063;-80
2022/11/10 13:01:15;;;;;;;27.33;13.65;;;12.70;99.90;;;;;;10484178;28;20064;-81
2022/11/10 13:06:31;;;;;;;28.70;13.05;;;12.60;99.90;;;;;;10482004;28;20182;-82
2022/11/10 13:11:34;;;;;;;23.45;11.82;;;12.50;99.90;;;;;;10473439;28;20159;-82
2022/11/10 13:16:37;;;;;;;26.73;12.38;;;12.50;99.90;;;;;;10484014;28;20090;-81
2022/11/10 13:22:03;;;;;;;25.25;12.52;;;12.40;99.90;;;;;;10483869;28;20142;-83
2022/11/10 13:27:12;;;;;;;18.85;10.20;;;12.50;99.90;;;;;;10483829;28;20717;-82
2022/11/10 13:32:12;;;;;;;20.10;8.35;;;12.90;99.90;;;;;;10483098;28;20033;-83
2022/11/10 13:37:28;;;;;;;23.85;9.93;;;12.90;99.90;;;;;;10484203;28;20476;-80
2022/11/10 13:42:29;;;;;;;46.72;20.13;;;12.90;99.90;;;;;;10471728;28;20122;-80
2022/11/10 13:47:41;;;;;;;32.78;16.77;;;12.80;99.90;;;;;;10484178;28;20102;-80
2022/11/10 13:52:55;;;;;;;21.02;10.70;;;12.60;99.90;;;;;;10483642;28;20024;-81
2022/11/10 13:58:04;;;;;;;23.08;12.10;;;12.50;99.90;;;;;;10483359;28;20755;-81
2022/11/10 14:03:06;;;;;;;29.85;14.43;;;12.40;99.90;;;;;;10482498;28;20040;-80
2022/11/10 14:08:20;;;;;;;27.48;14.82;;;12.40;99.90;;;;;;10482603;28;20036;-83
2022/11/10 14:13:34;;;;;;;31.67;17.40;;;12.30;99.90;;;;;;10483053;28;20546;-80
2022/11/10 14:18:48;;;;;;;25.55;14.82;;;12.20;99.90;;;;;;10482389;28;20056;-82
2022/11/10 14:23:55;;;;;;;33.88;19.73;;;12.20;99.90;;;;;;10482151;28;20028;-81
2022/11/10 14:28:55;;;;;;;28.50;16.92;;;12.10;99.90;;;;;;10486430;28;20023;-79
2022/11/10 14:33:57;;;;;;;22.88;11.07;;;12.00;99.90;;;;;;10490572;28;20025;-80
2022/11/10 14:38:59;;;;;;;17.75;10.63;;;11.90;99.90;;;;;;10490289;28;20033;-82
2022/11/10 14:44:03;;;;;;;27.67;14.45;;;11.90;99.90;;;;;;10490660;28;20024;-82
2022/11/10 14:49:04;;;;;;;19.70;10.90;;;11.80;99.90;;;;;;10490119;28;20027;-82
2022/11/10 14:54:06;;;;;;;23.90;12.85;;;11.80;99.90;;;;;;10488588;28;20583;-81
2022/11/10 14:59:10;;;;;;;61.53;31.95;;;11.70;99.90;;;;;;10490567;28;20875;-79
2022/11/10 15:04:13;;;;;;;81.38;40.60;;;11.70;99.90;;;;;;10489478;28;20472;-81
2022/11/10 15:09:21;;;;;;;61.28;33.92;;;11.60;99.90;;;;;;10489450;28;20024;-81
2022/11/10 15:14:40;;;;;;;73.55;38.95;;;11.50;99.90;;;;;;10489795;28;20373;-79
2022/11/10 15:19:47;;;;;;;72.95;42.45;;;11.40;99.90;;;;;;10488955;28;20836;-79
2022/11/10 15:24:50;;;;;;;66.57;36.92;;;11.20;99.90;;;;;;10489923;28;20474;-80
2022/11/10 15:29:52;;;;;;;71.32;40.22;;;11.10;99.90;;;;;;10488680;28;20839;-80
2022/11/10 15:35:05;;;;;;;97.78;59.65;;;10.90;99.90;;;;;;10476813;28;20104;-79
2022/11/10 15:40:27;;;;;;;156.68;90.32;;;10.60;99.90;;;;;;10473454;28;20041;-79
2022/11/10 15:45:27;;;;;;;162.77;89.15;;;10.50;99.90;;;;;;10487984;28;20039;-79
2022/11/10 15:50:28;;;;;;;166.20;86.57;;;10.30;99.90;;;;;;10488181;28;20032;-79
2022/11/10 15:55:33;;;;;;;161.13;84.90;;;10.30;99.90;;;;;;10488322;28;20027;-79
2022/11/10 16:00:33;;;;;;;149.13;76.35;;;10.20;99.90;;;;;;10486709;28;20041;-79
2022/11/10 16:05:38;;;;;;;185.30;92.07;;;10.10;99.90;;;;;;10486977;28;20489;-82
2022/11/10 16:10:41;;;;;;;238.47;118.03;;;10.00;99.90;;;;;;10487943;28;20074;-81
2022/11/10 16:15:44;;;;;;;188.40;95.53;;;9.80;99.90;;;;;;10487037;28;20067;-79
2022/11/10 16:20:45;;;;;;;161.60;79.73;;;9.60;99.90;;;;;;10487096;28;20668;-81
2022/11/10 16:25:48;;;;;;;185.87;88.83;;;9.30;99.90;;;;;;10487328;28;20037;-81
2022/11/10 16:30:50;;;;;;;201.63;95.33;;;9.10;99.90;;;;;;10486593;28;20029;-79
2022/11/10 16:35:52;;;;;;;157.13;81.10;;;8.90;99.90;;;;;;10485313;28;20579;-83
2022/11/10 16:40:55;;;;;;;122.77;65.73;;;8.70;99.90;;;;;;10483192;28;20020;-80
2022/11/10 16:45:59;;;;;;;119.83;65.83;;;8.60;99.90;;;;;;10466824;28;20031;-79
2022/11/10 16:51:00;;;;;;;96.37;52.70;;;8.40;99.90;;;;;;10476409;28;20032;-79
2022/11/10 16:56:01;;;;;;;82.33;40.37;;;8.30;99.90;;;;;;10484118;28;20032;-79
2022/11/10 17:01:02;;;;;;;75.87;39.20;;;8.10;99.90;;;;;;10483450;28;20036;-81
2022/11/10 17:06:04;;;;;;;92.50;47.03;;;8.00;99.90;;;;;;10484612;28;20032;-80
2022/11/10 17:11:04;;;;;;;90.80;50.17;;;7.90;99.90;;;;;;10483861;28;20029;-80
2022/11/10 17:16:18;;;;;;;115.10;62.10;;;8.00;99.90;;;;;;10484040;28;20021;-79
2022/11/10 17:21:20;;;;;;;110.40;60.13;;;8.10;99.90;;;;;;10481766;28;20052;-82
2022/11/10 17:26:21;;;;;;;118.30;61.80;;;8.20;99.90;;;;;;10484851;28;20024;-79
2022/11/10 17:31:22;;;;;;;106.20;56.60;;;8.30;99.90;;;;;;10482979;28;20085;-79
2022/11/10 17:36:23;;;;;;;110.20;58.43;;;8.20;99.90;;;;;;10482888;28;20069;-79
2022/11/10 17:41:23;;;;;;;106.67;57.17;;;8.10;99.90;;;;;;10483460;28;20115;-79
2022/11/10 17:46:24;;;;;;;110.37;59.47;;;7.90;99.90;;;;;;10483203;28;20032;-81
2022/11/10 17:51:25;;;;;;;107.17;58.77;;;7.80;99.90;;;;;;10481800;28;20103;-79
2022/11/10 17:56:25;;;;;;;121.37;62.13;;;7.80;99.90;;;;;;10483393;28;20119;-80
2022/11/10 18:01:26;;;;;;;122.27;64.23;;;7.60;99.90;;;;;;10481255;28;20607;-79
2022/11/10 18:06:26;;;;;;;132.93;70.13;;;7.60;99.90;;;;;;10482345;28;20043;-80
2022/11/10 18:11:27;;;;;;;136.37;71.50;;;7.50;99.90;;;;;;10486587;28;20082;-80
2022/11/10 18:16:27;;;;;;;149.13;83.87;;;7.40;99.90;;;;;;10481812;28;20450;-81
2022/11/10 18:21:28;;;;;;;156.90;87.93;;;7.30;99.90;;;;;;10482147;28;20094;-79
2022/11/10 18:26:28;;;;;;;158.97;87.13;;;7.20;99.90;;;;;;10483020;28;20460;-81
2022/11/10 18:31:29;;;;;;;137.53;76.77;;;7.20;99.90;;;;;;10480840;28;20544;-79
2022/11/10 18:36:29;;;;;;;125.80;65.87;;;7.20;99.90;;;;;;10481452;28;20127;-80
2022/11/10 18:41:48;;;;;;;108.07;58.53;;;7.00;99.90;;;;;;10481030;28;20024;-79
2022/11/10 18:46:48;;;;;;;132.73;67.23;;;6.90;99.90;;;;;;10480983;28;20028;-82
2022/11/10 18:51:49;;;;;;;136.77;65.83;;;6.80;99.90;;;;;;10480220;28;20056;-80
2022/11/10 18:56:49;;;;;;;109.87;57.30;;;6.80;99.90;;;;;;10481646;28;20518;-80
2022/11/10 19:01:50;;;;;;;121.93;62.43;;;6.60;99.90;;;;;;10480485;28;20044;-81
2022/11/10 19:06:50;;;;;;;131.70;66.10;;;6.50;99.90;;;;;;10482030;28;20412;-80
2022/11/10 19:11:51;;;;;;;127.03;66.43;;;6.50;99.90;;;;;;10479773;28;20035;-80
2022/11/10 19:16:51;;;;;;;129.37;66.53;;;6.60;99.90;;;;;;10484093;28;20040;-80
2022/11/10 19:21:52;;;;;;;129.80;69.83;;;6.70;99.90;;;;;;10487873;28;20048;-81
2022/11/10 19:26:53;;;;;;;122.23;68.13;;;6.70;99.90;;;;;;10487446;28;20115;-81
2022/11/10 19:31:53;;;;;;;123.07;67.80;;;6.80;99.90;;;;;;10488168;28;20044;-80
2022/11/10 19:36:54;;;;;;;126.97;66.23;;;6.70;99.90;;;;;;10487074;28;20090;-79
2022/11/10 19:41:54;;;;;;;118.33;63.70;;;6.70;99.90;;;;;;10486826;28;20033;-79
2022/11/10 19:46:55;;;;;;;125.57;65.33;;;6.60;99.90;;;;;;10487109;28;20423;-80
2022/11/10 19:51:55;;;;;;;120.87;65.00;;;6.60;99.90;;;;;;10487806;28;20098;-80
2022/11/10 19:56:56;;;;;;;116.87;65.73;;;6.50;99.90;;;;;;10486948;28;20052;-81
2022/11/10 20:01:58;;;;;;;146.47;76.63;;;6.40;99.90;;;;;;10486768;28;20036;-80
2022/11/10 20:12:17;;;;;;;124.73;65.07;;;6.30;99.90;;;;;;10481689;28;20036;-79
2022/11/10 20:17:18;;;;;;;126.23;65.57;;;6.30;99.90;;;;;;10485702;28;20048;-79
2022/11/10 20:22:18;;;;;;;135.00;71.40;;;6.40;99.90;;;;;;10486864;28;20101;-79
2022/11/10 20:27:19;;;;;;;121.57;63.07;;;6.60;99.90;;;;;;10484525;28;20336;-82
2022/11/10 20:32:20;;;;;;;103.53;55.90;;;6.70;99.90;;;;;;10485365;28;20702;-80
2022/11/10 20:37:20;;;;;;;128.37;65.73;;;6.80;99.90;;;;;;10487014;28;20043;-79
2022/11/10 20:42:21;;;;;;;129.40;66.63;;;6.70;99.90;;;;;;10485632;28;20063;-79
2022/11/10 20:47:21;;;;;;;132.43;67.13;;;6.50;99.90;;;;;;10484852;28;20660;-79
2022/11/10 20:52:22;;;;;;;138.50;70.63;;;6.50;99.90;;;;;;10483752;28;20032;-79
2022/11/10 20:57:24;;;;;;;112.80;60.63;;;6.50;99.90;;;;;;10485340;28;20040;-79
2022/11/10 21:02:25;;;;;;;134.37;69.67;;;6.50;99.90;;;;;;10483520;28;20023;-80
2022/11/10 21:07:26;;;;;;;127.43;67.80;;;6.50;99.90;;;;;;10484980;28;20656;-79
2022/11/10 21:17:46;;;;;;;133.43;70.00;;;6.40;99.90;;;;;;10484329;28;20662;-79
2022/11/10 21:22:46;;;;;;;139.13;71.30;;;6.30;99.90;;;;;;10484665;28;20056;-80
2022/11/10 21:27:47;;;;;;;140.57;73.37;;;6.20;99.90;;;;;;10483635;28;20178;-79
2022/11/10 21:32:48;;;;;;;116.40;58.80;;;6.10;99.90;;;;;;10482668;28;20032;-79
2022/11/10 21:37:49;;;;;;;104.00;56.10;;;6.00;99.90;;;;;;10481536;28;20116;-80
2022/11/10 21:42:53;;;;;;;111.57;60.07;;;6.00;99.90;;;;;;10483959;28;20047;-79
2022/11/10 21:47:59;;;;;;;110.80;59.70;;;6.10;99.90;;;;;;10477127;28;20645;-79
2022/11/10 21:53:00;;;;;;;145.88;85.97;;;6.20;99.90;;;;;;10481949;28;20384;-79
2022/11/10 21:58:00;;;;;;;131.67;75.93;;;6.30;99.90;;;;;;10481958;28;20072;-79
2022/11/10 22:03:02;;;;;;;128.90;70.47;;;6.30;99.90;;;;;;10481677;28;20580;-79
2022/11/10 22:08:03;;;;;;;131.67;72.57;;;6.20;99.90;;;;;;10483360;28;20028;-79
2022/11/10 22:18:40;;;;;;;159.30;93.33;;;6.00;99.90;;;;;;10481683;28;20056;-79
2022/11/10 22:28:59;;;;;;;143.50;86.00;;;6.10;99.90;;;;;;10480592;28;20041;-80
2022/11/10 22:34:00;;;;;;;148.37;83.70;;;6.10;99.90;;;;;;10482360;28;20388;-80
2022/11/10 22:39:02;;;;;;;147.77;83.00;;;6.00;99.90;;;;;;10481652;28;20041;-81
2022/11/10 22:44:03;;;;;;;133.10;74.10;;;6.00;99.90;;;;;;10482373;28;20032;-80
2022/11/10 22:49:07;;;;;;;124.20;69.67;;;6.10;99.90;;;;;;10483804;28;20035;-79
2022/11/10 22:54:13;;;;;;;145.60;84.43;;;6.10;99.90;;;;;;10489039;28;20056;-79
2022/11/10 22:59:14;;;;;;;137.77;70.43;;;6.10;99.90;;;;;;10489201;28;20123;-80
2022/11/10 23:04:15;;;;;;;129.13;71.63;;;6.00;99.90;;;;;;10489441;28;20044;-79
2022/11/10 23:09:16;;;;;;;131.17;69.63;;;5.90;99.90;;;;;;10489681;28;20036;-79
2022/11/10 23:14:16;;;;;;;135.57;70.00;;;5.90;99.90;;;;;;10489118;28;20036;-79
2022/11/10 23:19:17;;;;;;;133.13;67.50;;;5.80;99.90;;;;;;10487218;28;20041;-79
2022/11/10 23:24:21;;;;;;;138.40;68.93;;;5.70;99.90;;;;;;10489419;28;20042;-80
2022/11/10 23:29:22;;;;;;;146.07;71.33;;;5.60;99.90;;;;;;10488467;28;20077;-79
2022/11/10 23:34:22;;;;;;;133.77;72.57;;;5.50;99.90;;;;;;10488868;28;20486;-80
2022/11/10 23:39:23;;;;;;;149.20;71.47;;;5.40;99.90;;;;;;10487637;28;20163;-80
2022/11/10 23:44:23;;;;;;;166.93;84.13;;;5.40;99.90;;;;;;10487622;28;20020;-79
2022/11/10 23:49:24;;;;;;;142.67;77.23;;;5.30;99.90;;;;;;10488280;28;20078;-79
2022/11/10 23:54:24;;;;;;;163.37;89.07;;;5.30;99.90;;;;;;10488513;28;20489;-79
2022/11/10 23:59:25;;;;;;;177.10;86.33;;;5.20;99.90;;;;;;10485601;28;20040;-79
